Time;durP1;ratioP1;P1;durP2;ratioP2;P2;SDS_P1;SDS_P2;PMS_P1;PMS_P2;Temp;Humidity;BMP_temperature;BMP_pressure;BME280_temperature;BME280_humidity;BME280_pressure;Samples;Min_cycle;Max_cycle;Signal;HPM_P1;HPM_P2
2024/04/21 00:01:33;;;;;;;9.37;2.47;;;9.00;95.90;;;;;;5491444;26;20295;-56
2024/04/21 00:04:01;;;;;;;8.20;2.13;;;9.00;95.80;;;;;;5491730;26;20805;-56
2024/04/21 00:06:27;;;;;;;12.83;1.63;;;9.00;95.50;;;;;;5491027;26;20463;-55
2024/04/21 00:08:55;;;;;;;6.43;2.10;;;8.90;95.30;;;;;;5490994;26;20463;-56
2024/04/21 00:11:21;;;;;;;14.50;2.20;;;8.90;95.40;;;;;;5490961;26;20226;-57
2024/04/21 00:13:50;;;;;;;5.60;2.17;;;8.90;95.40;;;;;;5491465;26;20503;-56
2024/04/21 00:16:18;;;;;;;8.07;1.93;;;8.90;95.50;;;;;;5491143;26;20299;-56
2024/04/21 00:18:47;;;;;;;3.77;1.30;;;8.90;95.60;;;;;;5491568;26;20488;-57
2024/04/21 00:21:12;;;;;;;8.90;1.60;;;8.80;95.50;;;;;;5490596;26;20569;-56
2024/04/21 00:23:41;;;;;;;12.87;2.40;;;8.80;95.30;;;;;;5490925;26;20439;-56
2024/04/21 00:26:07;;;;;;;10.00;1.70;;;8.80;95.40;;;;;;5490778;26;20214;-56
2024/04/21 00:28:35;;;;;;;8.70;2.40;;;8.80;95.70;;;;;;5490610;26;20522;-56
2024/04/21 00:31:01;;;;;;;8.90;2.93;;;8.80;95.90;;;;;;5491014;26;20234;-57
2024/04/21 00:33:32;;;;;;;9.93;2.40;;;8.70;96.10;;;;;;5490789;26;20960;-57
2024/04/21 00:35:58;;;;;;;9.60;1.53;;;8.70;96.30;;;;;;5490545;26;20318;-56
2024/04/21 00:38:26;;;;;;;7.53;1.73;;;8.70;96.60;;;;;;5490288;26;20447;-57
2024/04/21 00:40:52;;;;;;;6.63;1.83;;;8.70;96.90;;;;;;5490389;26;20487;-56
2024/04/21 00:43:21;;;;;;;6.83;2.40;;;8.70;97.30;;;;;;5490309;26;20901;-57
2024/04/21 00:45:47;;;;;;;5.57;1.77;;;8.70;97.60;;;;;;5490358;26;20214;-57
2024/04/21 00:48:16;;;;;;;6.07;2.00;;;8.70;97.80;;;;;;5490441;26;20456;-56
2024/04/21 00:50:48;;;;;;;5.43;1.53;;;8.70;97.50;;;;;;5490369;26;20471;-57
2024/04/21 00:53:19;;;;;;;9.07;2.57;;;8.70;97.70;;;;;;5490532;26;20560;-57
2024/04/21 00:55:46;;;;;;;10.70;2.40;;;8.70;98.00;;;;;;5490006;26;20467;-57
2024/04/21 00:58:17;;;;;;;5.60;1.63;;;8.70;98.10;;;;;;5490026;26;21024;-57
2024/04/21 01:00:44;;;;;;;7.83;2.33;;;8.70;98.20;;;;;;5490447;26;20555;-57
2024/04/21 01:03:13;;;;;;;10.60;2.30;;;8.70;98.20;;;;;;5490212;26;20503;-57
2024/04/21 01:05:38;;;;;;;3.20;1.80;;;8.80;98.20;;;;;;5490658;26;20443;-57
2024/04/21 01:08:11;;;;;;;6.27;1.80;;;8.70;98.20;;;;;;5490021;26;21082;-57
2024/04/21 01:10:36;;;;;;;6.73;1.57;;;8.70;97.90;;;;;;5490102;26;20242;-57
2024/04/21 01:13:11;;;;;;;6.93;1.93;;;8.70;98.00;;;;;;5490285;26;20443;-57
2024/04/21 01:15:37;;;;;;;6.77;1.80;;;8.60;98.20;;;;;;5489921;26;20218;-57
2024/04/21 01:18:06;;;;;;;6.93;1.63;;;8.60;98.30;;;;;;5490056;26;20463;-57
2024/04/21 01:20:34;;;;;;;7.43;1.70;;;8.60;98.20;;;;;;5490303;26;20819;-57
2024/04/21 01:23:05;;;;;;;6.87;1.80;;;8.60;98.20;;;;;;5489878;26;20459;-56
2024/04/21 01:25:31;;;;;;;6.07;2.17;;;8.60;98.40;;;;;;5490209;26;20501;-57
2024/04/21 01:28:00;;;;;;;6.87;1.77;;;8.60;98.20;;;;;;5489885;26;20878;-56
2024/04/21 01:30:26;;;;;;;7.10;1.80;;;8.50;98.10;;;;;;5489390;26;20260;-56
2024/04/21 01:32:54;;;;;;;4.23;1.67;;;8.50;98.00;;;;;;5489607;26;20969;-56
2024/04/21 01:35:20;;;;;;;11.60;2.07;;;8.50;97.80;;;;;;5489850;26;20538;-56
2024/04/21 01:37:48;;;;;;;11.60;1.80;;;8.50;97.80;;;;;;5489750;26;20455;-56
2024/04/21 01:40:17;;;;;;;7.50;1.90;;;8.40;97.80;;;;;;5489625;26;20346;-57
2024/04/21 01:42:46;;;;;;;9.27;1.77;;;8.40;97.90;;;;;;5489433;26;20603;-56
2024/04/21 01:45:12;;;;;;;8.27;1.50;;;8.40;97.90;;;;;;5489537;26;20553;-57
2024/04/21 01:47:40;;;;;;;4.90;1.30;;;8.40;97.70;;;;;;5489800;26;20439;-56
2024/04/21 01:50:07;;;;;;;6.10;1.37;;;8.30;97.60;;;;;;5489601;26;20740;-56
2024/04/21 01:52:35;;;;;;;10.17;1.40;;;8.30;97.30;;;;;;5489680;26;20542;-57
2024/04/21 01:55:01;;;;;;;12.97;2.43;;;8.30;97.50;;;;;;5489328;26;20504;-56
2024/04/21 01:57:32;;;;;;;7.80;1.43;;;8.20;97.00;;;;;;5489399;26;20456;-56
2024/04/21 01:59:58;;;;;;;7.60;1.67;;;8.20;97.10;;;;;;5489291;26;20207;-56
2024/04/21 02:02:26;;;;;;;8.87;1.53;;;8.20;97.10;;;;;;5488797;26;20492;-57
2024/04/21 02:04:52;;;;;;;5.57;1.63;;;8.20;97.40;;;;;;5489175;26;20689;-56
2024/04/21 02:07:21;;;;;;;8.90;2.07;;;8.10;97.10;;;;;;5489333;26;20523;-56
2024/04/21 02:09:47;;;;;;;4.83;1.60;;;8.00;97.40;;;;;;5489100;26;20258;-57
2024/04/21 02:12:15;;;;;;;3.90;1.63;;;8.00;97.60;;;;;;5489243;26;20569;-57
2024/04/21 02:14:43;;;;;;;5.43;1.00;;;7.90;97.80;;;;;;5489115;26;20218;-55
2024/04/21 02:17:12;;;;;;;5.43;1.23;;;7.90;98.40;;;;;;5489076;26;20992;-56
2024/04/21 02:19:38;;;;;;;3.67;1.17;;;7.90;98.20;;;;;;5489754;26;20557;-56
2024/04/21 02:22:06;;;;;;;3.60;1.37;;;7.90;97.60;;;;;;5490755;26;21028;-56
2024/04/21 02:24:39;;;;;;;2.10;0.80;;;7.80;97.10;;;;;;5489966;26;20218;-56
2024/04/21 02:27:08;;;;;;;3.77;1.13;;;7.80;97.20;;;;;;5489331;26;20499;-56
2024/04/21 02:29:34;;;;;;;5.17;1.60;;;7.80;97.40;;;;;;5489470;26;20455;-56
2024/04/21 02:32:05;;;;;;;1.47;0.80;;;7.80;97.80;;;;;;5488903;26;20467;-57
2024/04/21 02:34:31;;;;;;;2.50;1.30;;;7.80;97.90;;;;;;5510251;26;20458;-56
2024/04/21 02:37:00;;;;;;;1.87;1.00;;;7.70;97.80;;;;;;5524523;25;20470;-56
2024/04/21 02:39:25;;;;;;;2.03;0.90;;;7.70;97.90;;;;;;5512507;25;20330;-56
2024/04/21 02:41:54;;;;;;;4.47;1.00;;;7.70;98.00;;;;;;5488690;26;20849;-56
2024/04/21 02:44:20;;;;;;;4.27;1.17;;;7.70;98.00;;;;;;5488631;26;20222;-56
2024/04/21 02:46:49;;;;;;;5.70;0.87;;;7.70;98.00;;;;;;5488661;26;20514;-56
2024/04/21 02:49:17;;;;;;;1.87;1.10;;;7.70;97.90;;;;;;5488952;26;20215;-56
2024/04/21 02:51:45;;;;;;;4.20;2.10;;;7.60;97.80;;;;;;5488637;26;21088;-56
2024/04/21 02:54:11;;;;;;;4.17;3.50;;;7.60;97.90;;;;;;5488990;26;20448;-56
2024/04/21 02:56:40;;;;;;;3.47;3.17;;;7.60;98.00;;;;;;5488663;26;20468;-56
2024/04/21 02:59:06;;;;;;;8.80;4.00;;;7.60;98.00;;;;;;5488732;26;20226;-56
2024/04/21 03:01:34;;;;;;;47.80;30.27;;;7.50;98.10;;;;;;5487884;26;20576;-56
2024/04/21 03:04:00;;;;;;;35.10;25.10;;;7.60;98.10;;;;;;5488803;26;20275;-56
2024/04/21 03:06:31;;;;;;;28.13;21.50;;;7.50;98.10;;;;;;5488452;26;20447;-56
2024/04/21 03:08:57;;;;;;;8.03;6.00;;;7.50;98.20;;;;;;5489079;26;20696;-56
2024/04/21 03:11:25;;;;;;;7.67;3.23;;;7.50;98.10;;;;;;5488500;26;20567;-56
2024/04/21 03:13:51;;;;;;;5.50;2.27;;;7.50;98.30;;;;;;5488540;26;20218;-56
2024/04/21 03:16:19;;;;;;;3.57;1.40;;;7.40;98.30;;;;;;5491595;26;20507;-56
2024/04/21 03:18:45;;;;;;;5.33;1.30;;;7.40;98.30;;;;;;5491474;26;20592;-56
2024/04/21 03:21:14;;;;;;;4.63;1.20;;;7.40;98.40;;;;;;5491339;26;20997;-56
2024/04/21 03:23:42;;;;;;;3.97;1.60;;;7.40;98.30;;;;;;5492116;26;20331;-56
2024/04/21 03:26:11;;;;;;;5.60;1.63;;;7.30;98.20;;;;;;5491878;26;20451;-56
2024/04/21 03:28:36;;;;;;;7.30;1.60;;;7.40;98.30;;;;;;5491191;26;20455;-56
2024/04/21 03:31:05;;;;;;;8.43;2.70;;;7.30;98.40;;;;;;5491474;26;20507;-56
2024/04/21 03:33:31;;;;;;;6.07;1.80;;;7.30;98.60;;;;;;5491647;26;20227;-56
2024/04/21 03:36:04;;;;;;;6.20;2.10;;;7.30;98.80;;;;;;5491805;26;20455;-56
2024/04/21 03:38:34;;;;;;;7.20;1.30;;;7.20;98.80;;;;;;5491339;26;20244;-56
2024/04/21 03:41:06;;;;;;;4.73;1.30;;;7.30;99.10;;;;;;5491072;26;20515;-56
2024/04/21 03:43:35;;;;;;;5.87;1.87;;;7.30;99.20;;;;;;5491320;26;20456;-56
2024/04/21 03:46:04;;;;;;;2.43;0.90;;;7.30;99.60;;;;;;5491266;26;21045;-56
2024/04/21 03:48:31;;;;;;;4.40;1.20;;;7.30;99.30;;;;;;5491093;26;20458;-56
2024/04/21 03:51:00;;;;;;;7.70;1.53;;;7.30;99.10;;;;;;5490994;26;20572;-56
2024/04/21 03:53:26;;;;;;;4.33;1.20;;;7.30;98.90;;;;;;5491122;26;20451;-56
2024/04/21 03:55:54;;;;;;;3.60;1.23;;;7.30;98.80;;;;;;5491440;26;20444;-56
2024/04/21 03:58:23;;;;;;;5.60;1.63;;;7.20;98.90;;;;;;5491109;26;20832;-56
2024/04/21 04:00:51;;;;;;;5.37;1.23;;;7.20;98.90;;;;;;5491102;26;20511;-56
2024/04/21 04:03:17;;;;;;;2.43;1.00;;;7.30;99.30;;;;;;5490985;26;20463;-56
2024/04/21 04:05:47;;;;;;;2.60;0.90;;;7.30;99.00;;;;;;5490958;26;20545;-56
2024/04/21 04:08:13;;;;;;;10.10;1.47;;;7.20;99.00;;;;;;5490902;26;20992;-56
2024/04/21 04:10:43;;;;;;;6.53;1.50;;;7.20;99.10;;;;;;5491153;26;20463;-56
2024/04/21 04:13:09;;;;;;;6.30;1.30;;;7.20;99.10;;;;;;5490540;26;20546;-56
2024/04/21 04:15:41;;;;;;;10.27;1.50;;;7.20;99.10;;;;;;5491117;26;21044;-56
2024/04/21 04:18:07;;;;;;;3.97;1.60;;;7.20;99.20;;;;;;5490651;26;20594;-56
2024/04/21 04:20:36;;;;;;;7.10;1.53;;;7.20;99.30;;;;;;5490497;26;20467;-56
2024/04/21 04:23:02;;;;;;;5.83;1.50;;;7.20;99.30;;;;;;5490769;26;20319;-56
2024/04/21 04:25:30;;;;;;;3.17;2.07;;;7.20;99.10;;;;;;5490621;26;20459;-56
2024/04/21 04:27:56;;;;;;;3.60;1.10;;;7.20;99.10;;;;;;5490947;26;20790;-56
2024/04/21 04:30:25;;;;;;;10.63;1.87;;;7.20;99.00;;;;;;5490451;26;20548;-56
2024/04/21 04:32:54;;;;;;;3.83;1.03;;;7.20;99.10;;;;;;5490474;26;20253;-57
2024/04/21 04:35:22;;;;;;;6.23;1.20;;;7.20;99.10;;;;;;5490337;26;20515;-57
2024/04/21 04:37:48;;;;;;;4.07;1.43;;;7.20;99.10;;;;;;5491402;26;20469;-57
2024/04/21 04:40:17;;;;;;;3.40;1.63;;;7.10;99.10;;;;;;5490506;26;20581;-56
2024/04/21 04:42:44;;;;;;;7.97;2.00;;;7.20;99.40;;;;;;5490608;26;20609;-56
2024/04/21 04:45:13;;;;;;;6.77;1.60;;;7.20;99.50;;;;;;5490116;26;20981;-57
2024/04/21 04:47:39;;;;;;;6.07;1.30;;;7.20;99.60;;;;;;5490318;26;20464;-57
2024/04/21 04:50:10;;;;;;;5.33;1.67;;;7.20;99.80;;;;;;5490179;26;20463;-56
2024/04/21 04:52:36;;;;;;;8.10;2.00;;;7.20;99.90;;;;;;5490545;26;20211;-57
2024/04/21 04:55:05;;;;;;;6.43;1.87;;;7.20;99.90;;;;;;5490082;26;21021;-57
2024/04/21 04:57:31;;;;;;;7.83;2.17;;;7.20;99.90;;;;;;5490828;26;20318;-56
2024/04/21 04:59:59;;;;;;;4.93;1.50;;;7.20;99.90;;;;;;5490443;26;20845;-56
2024/04/21 05:02:25;;;;;;;5.23;1.63;;;7.20;99.90;;;;;;5490362;26;20222;-56
2024/04/21 05:04:54;;;;;;;4.83;1.63;;;7.30;99.90;;;;;;5490021;26;20561;-56
2024/04/21 05:07:23;;;;;;;10.07;2.27;;;7.30;99.90;;;;;;5452779;26;974417;-56
2024/04/21 05:09:51;;;;;;;4.10;1.90;;;7.30;99.90;;;;;;5490054;26;20249;-56
2024/04/21 05:12:18;;;;;;;7.90;1.80;;;7.30;99.90;;;;;;5490195;26;20567;-56
2024/04/21 05:14:46;;;;;;;7.63;2.07;;;7.40;99.90;;;;;;5490205;26;20455;-56
2024/04/21 05:17:12;;;;;;;5.83;1.50;;;7.40;99.90;;;;;;5490076;26;20558;-56
2024/04/21 05:19:40;;;;;;;6.97;2.30;;;7.40;99.90;;;;;;5489942;26;20447;-56
2024/04/21 05:22:06;;;;;;;5.07;2.07;;;7.40;99.90;;;;;;5489865;26;20619;-56
2024/04/21 05:24:37;;;;;;;5.67;3.60;;;7.50;99.90;;;;;;5490345;26;20447;-56
2024/04/21 05:27:04;;;;;;;7.13;1.83;;;7.40;99.80;;;;;;5489663;26;20245;-56
2024/04/21 05:29:32;;;;;;;11.30;2.30;;;7.50;99.60;;;;;;5490350;26;20456;-56
2024/04/21 05:31:58;;;;;;;8.33;2.10;;;7.50;99.30;;;;;;5489422;26;20577;-56
2024/04/21 05:34:26;;;;;;;11.70;1.80;;;7.50;99.40;;;;;;5489634;26;20452;-56
2024/04/21 05:36:52;;;;;;;4.00;1.87;;;7.60;99.60;;;;;;5489258;26;20255;-57
2024/04/21 05:39:23;;;;;;;7.47;1.90;;;7.60;99.60;;;;;;5488319;26;20459;-56
2024/04/21 05:41:51;;;;;;;7.67;2.10;;;7.50;98.80;;;;;;5489521;26;20218;-57
2024/04/21 05:44:20;;;;;;;5.73;2.10;;;7.50;98.70;;;;;;5489641;26;20502;-56
2024/04/21 05:46:46;;;;;;;5.57;1.60;;;7.60;98.60;;;;;;5490147;26;20452;-57
2024/04/21 05:49:14;;;;;;;3.70;1.53;;;7.50;98.50;;;;;;5489870;26;20504;-56
2024/04/21 05:51:40;;;;;;;7.80;2.77;;;7.60;98.60;;;;;;5489984;26;20338;-56
2024/04/21 05:54:08;;;;;;;6.43;1.70;;;7.70;98.90;;;;;;5489835;26;20444;-56
2024/04/21 05:56:34;;;;;;;9.43;2.13;;;7.70;98.90;;;;;;5489910;26;20746;-56
2024/04/21 05:59:05;;;;;;;7.87;1.80;;;7.80;98.70;;;;;;5490427;26;20997;-56
2024/04/21 06:01:31;;;;;;;12.50;2.20;;;7.90;99.20;;;;;;5489788;26;20274;-56
2024/04/21 06:04:00;;;;;;;7.30;2.80;;;8.00;98.80;;;;;;5489519;26;20561;-56
2024/04/21 06:06:25;;;;;;;11.00;2.97;;;8.00;98.60;;;;;;5489399;26;20230;-57
2024/04/21 06:08:54;;;;;;;7.00;2.27;;;8.20;98.90;;;;;;5490695;26;20577;-56
2024/04/21 06:11:20;;;;;;;5.40;2.10;;;8.30;98.70;;;;;;5489990;26;20246;-56
2024/04/21 06:13:48;;;;;;;9.70;2.40;;;8.40;98.20;;;;;;5490289;26;20443;-57
2024/04/21 06:16:17;;;;;;;9.17;2.40;;;8.50;98.10;;;;;;5490104;26;20253;-56
2024/04/21 06:18:45;;;;;;;6.17;2.20;;;8.60;97.60;;;;;;5489932;26;20507;-56
2024/04/21 06:21:11;;;;;;;8.83;3.23;;;8.70;97.00;;;;;;5489663;26;20571;-56
2024/04/21 06:23:39;;;;;;;7.77;2.23;;;8.70;96.40;;;;;;5489773;26;20440;-56
2024/04/21 06:26:05;;;;;;;5.40;1.83;;;8.70;96.30;;;;;;5489661;26;20551;-56
2024/04/21 06:28:34;;;;;;;6.40;1.70;;;8.80;96.60;;;;;;5489415;26;20519;-56
2024/04/21 06:30:59;;;;;;;7.03;1.70;;;8.80;97.00;;;;;;5489478;26;20275;-56
2024/04/21 06:33:30;;;;;;;13.73;2.83;;;8.80;97.00;;;;;;5489808;26;20459;-56
2024/04/21 06:35:56;;;;;;;8.07;2.10;;;8.80;96.60;;;;;;5489733;26;20244;-56
2024/04/21 06:38:25;;;;;;;2.87;1.47;;;8.80;96.40;;;;;;5489654;26;20452;-56
2024/04/21 06:40:51;;;;;;;9.73;1.83;;;8.80;96.40;;;;;;5489215;26;20560;-56
2024/04/21 06:43:19;;;;;;;11.40;2.33;;;8.80;96.50;;;;;;5489604;26;20471;-56
2024/04/21 06:45:45;;;;;;;8.90;2.23;;;8.80;96.60;;;;;;5489080;26;20455;-56
2024/04/21 06:48:14;;;;;;;6.77;1.87;;;8.80;96.50;;;;;;5489606;26;20447;-56
2024/04/21 06:50:43;;;;;;;5.37;1.97;;;8.80;96.60;;;;;;5488598;26;20847;-56
2024/04/21 06:53:11;;;;;;;11.83;2.83;;;8.80;96.70;;;;;;5489444;26;20533;-57
2024/04/21 06:55:37;;;;;;;5.83;2.50;;;8.80;96.80;;;;;;5489029;26;20538;-56
2024/04/21 06:58:06;;;;;;;11.83;6.27;;;8.80;97.00;;;;;;5489162;26;20859;-56
2024/04/21 07:00:32;;;;;;;10.83;6.30;;;8.90;97.20;;;;;;5488843;26;20467;-56
2024/04/21 07:03:00;;;;;;;11.27;3.53;;;9.00;97.30;;;;;;5489352;26;20507;-56
2024/04/21 07:05:26;;;;;;;8.83;3.87;;;9.00;97.20;;;;;;5489231;26;20218;-56
2024/04/21 07:07:57;;;;;;;7.97;5.13;;;9.10;97.10;;;;;;5489164;26;20459;-56
2024/04/21 07:10:23;;;;;;;15.43;7.03;;;9.10;97.10;;;;;;5489016;26;20238;-56
2024/04/21 07:12:51;;;;;;;10.07;4.07;;;9.20;97.30;;;;;;5489158;26;21032;-57
2024/04/21 07:15:17;;;;;;;9.67;4.70;;;9.40;97.30;;;;;;5489023;26;20210;-56
2024/04/21 07:17:46;;;;;;;15.73;6.63;;;9.50;97.20;;;;;;5488922;26;21017;-56
2024/04/21 07:20:12;;;;;;;15.03;5.67;;;9.70;97.00;;;;;;5488765;26;20223;-57
2024/04/21 07:22:41;;;;;;;12.70;4.40;;;9.80;96.70;;;;;;5488755;26;20499;-56
2024/04/21 07:25:11;;;;;;;15.27;8.63;;;9.90;96.40;;;;;;5488870;26;20451;-56
2024/04/21 07:27:39;;;;;;;8.93;4.10;;;9.90;96.20;;;;;;5488653;26;21093;-56
2024/04/21 07:30:06;;;;;;;10.40;2.83;;;10.00;95.70;;;;;;5488291;26;20828;-56
2024/04/21 07:32:35;;;;;;;8.43;4.30;;;10.00;95.20;;;;;;5488675;26;20455;-56
2024/04/21 07:35:01;;;;;;;8.93;4.10;;;10.00;95.00;;;;;;5488633;26;20494;-56
2024/04/21 07:37:29;;;;;;;4.97;3.60;;;9.90;95.60;;;;;;5488316;26;20448;-56
2024/04/21 07:39:56;;;;;;;10.40;3.67;;;9.90;95.80;;;;;;5488039;26;20219;-57
2024/04/21 07:42:27;;;;;;;7.30;3.53;;;9.90;96.00;;;;;;5488600;26;20536;-57
2024/04/21 07:44:53;;;;;;;9.90;5.40;;;10.10;95.90;;;;;;5488514;26;20467;-57
2024/04/21 07:47:21;;;;;;;12.03;9.20;;;10.40;96.30;;;;;;5488275;26;20508;-57
2024/04/21 07:49:47;;;;;;;15.67;10.50;;;10.70;96.10;;;;;;5488220;26;20219;-57
2024/04/21 07:52:16;;;;;;;9.07;8.17;;;10.80;95.60;;;;;;5488413;26;20495;-57
2024/04/21 07:54:41;;;;;;;10.50;8.63;;;11.00;95.30;;;;;;5488368;26;20230;-57
2024/04/21 07:57:10;;;;;;;10.37;8.50;;;11.20;94.80;;;;;;5488012;26;20444;-57
2024/04/21 07:59:38;;;;;;;12.97;7.50;;;11.40;94.10;;;;;;5487908;26;20214;-56
2024/04/21 08:02:07;;;;;;;7.50;5.80;;;11.50;93.20;;;;;;5490329;26;20456;-57
2024/04/21 08:04:33;;;;;;;6.80;5.40;;;11.60;92.60;;;;;;5492594;26;20435;-57
2024/04/21 08:07:01;;;;;;;6.97;5.70;;;11.70;92.50;;;;;;5493437;26;20499;-57
2024/04/21 08:09:27;;;;;;;9.57;6.10;;;11.80;92.00;;;;;;5492762;26;20577;-57
2024/04/21 08:11:56;;;;;;;8.70;5.47;;;11.80;91.80;;;;;;5491739;26;20563;-56
2024/04/21 08:14:22;;;;;;;9.60;7.17;;;11.90;91.80;;;;;;5491583;26;20321;-56
2024/04/21 08:16:53;;;;;;;15.53;7.80;;;12.00;91.60;;;;;;5491579;26;20984;-57
2024/04/21 08:19:19;;;;;;;5.63;5.13;;;12.10;91.50;;;;;;5491485;26;20923;-56
2024/04/21 08:21:48;;;;;;;9.90;4.53;;;12.30;91.20;;;;;;5491400;26;20471;-57
2024/04/21 08:24:14;;;;;;;9.83;4.30;;;12.40;90.80;;;;;;5491302;26;20713;-56
2024/04/21 08:26:42;;;;;;;4.23;3.13;;;12.60;90.50;;;;;;5491243;26;20500;-56
2024/04/21 08:29:08;;;;;;;6.40;3.80;;;12.70;89.70;;;;;;5491408;26;20306;-57
2024/04/21 08:31:36;;;;;;;5.03;3.00;;;12.70;88.50;;;;;;5491032;26;20475;-57
2024/04/21 08:34:05;;;;;;;8.93;3.90;;;12.60;85.70;;;;;;5491057;26;20223;-56
2024/04/21 08:36:33;;;;;;;11.63;3.67;;;12.50;85.30;;;;;;5491010;26;20472;-56
2024/04/21 08:38:59;;;;;;;13.10;2.93;;;12.40;85.60;;;;;;5491083;26;21060;-57
2024/04/21 08:41:32;;;;;;;12.10;4.30;;;12.30;85.60;;;;;;5491246;26;20475;-55
2024/04/21 08:43:59;;;;;;;7.57;3.87;;;12.30;86.20;;;;;;5491432;26;20366;-55
2024/04/21 08:46:27;;;;;;;10.27;4.10;;;12.30;86.90;;;;;;5491256;26;20847;-56
2024/04/21 08:48:54;;;;;;;8.33;3.97;;;12.40;87.20;;;;;;5491183;26;20501;-56
2024/04/21 08:51:27;;;;;;;4.03;2.83;;;12.40;87.00;;;;;;5491142;26;20814;-56
2024/04/21 08:53:53;;;;;;;4.23;2.70;;;12.40;87.10;;;;;;5491303;26;20455;-57
2024/04/21 08:56:25;;;;;;;3.53;2.43;;;12.30;86.10;;;;;;5491341;26;20451;-56
2024/04/21 08:58:52;;;;;;;6.23;2.30;;;12.30;85.90;;;;;;5491267;26;20227;-56
2024/04/21 09:01:21;;;;;;;3.97;2.50;;;12.30;85.10;;;;;;5490849;26;20471;-56
2024/04/21 09:03:48;;;;;;;8.90;3.20;;;12.20;83.20;;;;;;5490990;26;20463;-56
2024/04/21 09:06:18;;;;;;;3.83;3.00;;;12.20;84.10;;;;;;5491026;26;20440;-56
2024/04/21 09:08:46;;;;;;;5.33;3.30;;;12.30;84.70;;;;;;5491291;26;20508;-56
2024/04/21 09:11:15;;;;;;;5.50;2.27;;;12.60;85.90;;;;;;5491220;26;20606;-57
2024/04/21 09:13:41;;;;;;;5.07;4.30;;;12.80;84.00;;;;;;5491242;26;20504;-56
2024/04/21 09:16:09;;;;;;;9.93;4.57;;;13.00;83.00;;;;;;5491447;26;20854;-57
2024/04/21 09:18:35;;;;;;;10.70;4.30;;;13.00;82.30;;;;;;5491350;26;20252;-56
2024/04/21 09:21:03;;;;;;;5.47;5.00;;;13.00;82.10;;;;;;5491150;26;20468;-56
2024/04/21 09:23:29;;;;;;;7.30;3.30;;;13.00;81.70;;;;;;5490993;26;20219;-56
2024/04/21 09:26:01;;;;;;;5.13;3.47;;;13.00;82.10;;;;;;5490956;26;20519;-56
2024/04/21 09:28:26;;;;;;;4.30;2.87;;;13.10;82.00;;;;;;5490739;26;20210;-56
2024/04/21 09:30:55;;;;;;;3.93;2.80;;;13.00;78.70;;;;;;5490562;26;20884;-56
2024/04/21 09:33:21;;;;;;;3.33;2.70;;;13.00;78.40;;;;;;5490637;26;20638;-56
2024/04/21 09:35:50;;;;;;;2.97;2.70;;;13.00;77.70;;;;;;5490570;26;20491;-56
2024/04/21 09:38:15;;;;;;;5.50;2.80;;;13.00;77.20;;;;;;5490710;26;20459;-56
2024/04/21 09:40:45;;;;;;;3.20;2.90;;;12.90;77.90;;;;;;5490794;26;20569;-56
2024/04/21 09:43:15;;;;;;;2.93;2.10;;;12.90;76.30;;;;;;5490380;26;20210;-56
2024/04/21 09:45:44;;;;;;;4.10;2.57;;;13.00;76.80;;;;;;5490542;26;20467;-57
2024/04/21 09:48:11;;;;;;;3.50;2.83;;;13.10;76.70;;;;;;5490342;26;20538;-56
2024/04/21 09:50:42;;;;;;;2.50;2.30;;;13.30;76.10;;;;;;5490479;26;20543;-56
2024/04/21 09:53:09;;;;;;;3.93;2.70;;;13.30;75.70;;;;;;5490683;26;20447;-56
2024/04/21 09:55:40;;;;;;;3.20;2.90;;;13.50;76.00;;;;;;5490616;26;20924;-56
2024/04/21 09:58:11;;;;;;;2.87;2.63;;;13.80;76.10;;;;;;5490393;26;20997;-56
2024/04/21 10:00:44;;;;;;;3.10;2.80;;;14.20;74.10;;;;;;5490201;26;20511;-56
2024/04/21 10:03:10;;;;;;;3.20;2.60;;;14.40;70.60;;;;;;5490139;26;20459;-56
2024/04/21 10:05:41;;;;;;;2.87;2.67;;;14.40;69.10;;;;;;5490226;26;20443;-56
2024/04/21 10:08:07;;;;;;;3.53;3.33;;;14.40;68.60;;;;;;5490233;26;20471;-57
2024/04/21 10:10:38;;;;;;;3.00;2.40;;;14.60;69.10;;;;;;5489816;26;20468;-56
2024/04/21 10:13:05;;;;;;;3.03;2.73;;;15.00;69.90;;;;;;5490194;26;21081;-56
2024/04/21 10:15:35;;;;;;;4.57;2.73;;;15.60;68.60;;;;;;5489775;26;20515;-57
2024/04/21 10:18:04;;;;;;;2.97;2.77;;;16.00;66.60;;;;;;5489929;26;20501;-56
2024/04/21 10:20:33;;;;;;;3.40;2.37;;;16.40;64.40;;;;;;5489927;26;21113;-57
2024/04/21 10:23:00;;;;;;;3.13;2.93;;;16.60;62.10;;;;;;5490051;26;20549;-57
2024/04/21 10:25:29;;;;;;;3.67;2.50;;;17.00;61.30;;;;;;5488736;26;20439;-56
2024/04/21 10:28:03;;;;;;;3.10;2.30;;;17.60;59.50;;;;;;5490071;26;20451;-57
2024/04/21 10:30:32;;;;;;;2.70;2.30;;;18.50;57.40;;;;;;5489793;26;20572;-57
2024/04/21 10:32:58;;;;;;;3.00;2.23;;;19.30;54.30;;;;;;5489597;26;21111;-56
2024/04/21 10:35:34;;;;;;;2.53;2.33;;;19.80;50.20;;;;;;5489488;26;20500;-57
2024/04/21 10:38:03;;;;;;;2.50;2.30;;;19.90;48.00;;;;;;5489496;26;20439;-57
2024/04/21 10:40:32;;;;;;;2.60;2.40;;;20.00;48.30;;;;;;5489413;26;20475;-56
2024/04/21 10:43:01;;;;;;;2.33;2.23;;;19.80;47.70;;;;;;5489233;26;20509;-56
2024/04/21 10:45:30;;;;;;;2.40;2.20;;;19.20;47.20;;;;;;5488981;26;20447;-57
2024/04/21 10:47:56;;;;;;;2.63;2.43;;;18.60;48.40;;;;;;5489284;26;20495;-57
2024/04/21 10:50:24;;;;;;;6.50;2.40;;;18.20;49.80;;;;;;5489440;26;20527;-57
2024/04/21 10:52:54;;;;;;;2.50;2.30;;;18.20;52.00;;;;;;5489130;26;20219;-56
2024/04/21 10:55:23;;;;;;;2.27;2.07;;;19.00;51.00;;;;;;5489015;26;21040;-56
2024/04/21 10:57:49;;;;;;;1.70;1.60;;;20.00;48.00;;;;;;5489320;26;20447;-57
2024/04/21 11:00:17;;;;;;;2.10;1.90;;;21.10;48.10;;;;;;5488962;26;20515;-56
2024/04/21 11:02:43;;;;;;;2.87;2.00;;;22.00;42.90;;;;;;5488812;26;20452;-57
2024/04/21 11:05:12;;;;;;;2.03;1.83;;;22.70;41.00;;;;;;5488882;26;20953;-56
2024/04/21 11:07:38;;;;;;;2.00;1.77;;;23.00;39.10;;;;;;5488840;26;20258;-55
2024/04/21 11:10:10;;;;;;;2.03;1.80;;;22.70;38.30;;;;;;5488832;26;22180;-55
2024/04/21 11:12:36;;;;;;;2.17;2.00;;;22.10;38.10;;;;;;5489102;26;20565;-56
2024/04/21 11:15:05;;;;;;;2.03;1.87;;;22.20;40.50;;;;;;5488758;26;20515;-56
2024/04/21 11:17:32;;;;;;;1.67;1.57;;;22.40;38.70;;;;;;5488915;26;20218;-56
2024/04/21 11:20:01;;;;;;;3.60;2.07;;;22.40;38.10;;;;;;5488871;26;20512;-55
2024/04/21 11:22:27;;;;;;;2.27;2.17;;;22.10;38.50;;;;;;5488947;26;20565;-55
2024/04/21 11:24:56;;;;;;;1.47;1.37;;;21.90;39.80;;;;;;5488707;26;20467;-56
2024/04/21 11:27:25;;;;;;;2.00;1.30;;;22.60;39.20;;;;;;5488354;26;20391;-56
2024/04/21 11:29:54;;;;;;;3.20;1.93;;;23.60;37.60;;;;;;5488248;26;20671;-56
2024/04/21 11:32:20;;;;;;;1.77;1.67;;;24.00;34.90;;;;;;5488546;26;20459;-57
2024/04/21 11:34:49;;;;;;;1.83;1.40;;;24.00;35.20;;;;;;5488702;26;20519;-56
2024/04/21 11:37:18;;;;;;;1.63;1.47;;;24.10;33.30;;;;;;5491923;26;20492;-56
2024/04/21 11:39:47;;;;;;;1.60;1.50;;;24.60;34.60;;;;;;5492229;26;20443;-56
2024/04/21 11:42:12;;;;;;;1.37;1.27;;;25.20;34.60;;;;;;5492167;26;20809;-56
2024/04/21 11:44:44;;;;;;;1.80;1.50;;;25.60;32.90;;;;;;5492210;26;20459;-56
2024/04/21 11:47:10;;;;;;;1.33;1.23;;;26.20;32.40;;;;;;5492105;26;20301;-56
2024/04/21 11:49:40;;;;;;;1.00;1.00;;;26.80;30.40;;;;;;5491888;26;20499;-56
2024/04/21 11:52:06;;;;;;;2.10;1.80;;;27.20;29.70;;;;;;5491679;26;20459;-55
2024/04/21 11:54:34;;;;;;;4.30;3.70;;;26.80;29.40;;;;;;5491927;26;20504;-56
2024/04/21 11:57:00;;;;;;;5.97;3.07;;;25.90;28.90;;;;;;5492014;26;20253;-56
2024/04/21 11:59:28;;;;;;;2.10;1.47;;;24.90;30.60;;;;;;5491855;26;20444;-56
2024/04/21 12:01:57;;;;;;;1.70;1.37;;;23.90;32.30;;;;;;5491571;26;20242;-56
2024/04/21 12:04:25;;;;;;;2.33;2.13;;;23.70;34.80;;;;;;5491682;26;20495;-57
2024/04/21 12:06:51;;;;;;;3.00;1.87;;;24.10;34.60;;;;;;5491864;26;20496;-57
2024/04/21 12:09:20;;;;;;;2.00;1.90;;;24.90;33.60;;;;;;5491652;26;20887;-56
2024/04/21 12:11:45;;;;;;;2.83;1.90;;;25.40;32.00;;;;;;5491485;26;20230;-56
2024/04/21 12:14:28;;;;;;;2.00;1.80;;;25.40;30.60;;;;;;5491996;26;20455;-56
2024/04/21 12:16:57;;;;;;;2.03;1.83;;;24.70;30.90;;;;;;5492147;26;20631;-56
2024/04/21 12:19:27;;;;;;;1.83;1.60;;;23.80;32.10;;;;;;5491925;26;20440;-56
2024/04/21 12:21:54;;;;;;;3.53;2.40;;;22.90;33.50;;;;;;5491666;26;20460;-56
2024/04/21 12:24:23;;;;;;;3.27;2.40;;;22.00;35.00;;;;;;5491319;26;20447;-58
2024/04/21 12:26:49;;;;;;;3.90;2.40;;;21.20;36.30;;;;;;5491745;26;20455;-57
2024/04/21 12:29:18;;;;;;;2.20;1.53;;;20.50;37.60;;;;;;5492840;26;20500;-57
2024/04/21 12:31:44;;;;;;;1.80;1.67;;;19.90;39.50;;;;;;5492360;26;20828;-57
2024/04/21 12:34:15;;;;;;;1.90;1.63;;;19.80;42.00;;;;;;5492170;26;20451;-57
2024/04/21 12:36:41;;;;;;;2.47;2.10;;;20.00;42.40;;;;;;5491785;26;20210;-57
2024/04/21 12:39:09;;;;;;;1.93;1.70;;;20.30;40.60;;;;;;5491794;26;20447;-57
2024/04/21 12:41:35;;;;;;;1.57;1.40;;;20.20;40.20;;;;;;5491344;26;20778;-57
2024/04/21 12:44:04;;;;;;;1.93;1.83;;;19.90;39.70;;;;;;5491595;26;20521;-57
2024/04/21 12:46:29;;;;;;;3.30;2.13;;;19.60;40.20;;;;;;5490975;26;20835;-56
2024/04/21 12:49:00;;;;;;;2.93;1.60;;;19.70;42.40;;;;;;5491259;26;20507;-56
2024/04/21 12:51:30;;;;;;;2.10;1.40;;;20.80;42.50;;;;;;5490937;26;20246;-56
2024/04/21 12:53:58;;;;;;;2.20;1.50;;;21.80;38.60;;;;;;5491088;26;21047;-56